Kezdőlap
METAR-TAF:

METAR-TAF

Repülőterek :

Koror, Babeldaob, Palau

földrajzi szélesség: 07-22N, földrajzi hosszúság: 134-32E, magasság: 54 m

Jelenlegi meteorológiai megfigyelések

A jelentés 54 perccel ezelõtt készült, 10:50 UTC
Szélcsend
Hőmérséklet 26°C
Páratartalom 89%
Légköri nyomás 1010 hPa
Látótávolság: 24.1 km
Szórványos felhőzet 1600 lábon, Tornyos gomolyfelhő.
Szakadozott felhőzet 12000 lábon
Szakadozott felhőzet 30000 lábon

METAR: PTRO 181050Z 00000KT 15SM SCT016TCU BKN120 BKN300 26/24 A2983 RMK TCU ALQDS

Idő: 20:44 (11:44 UTC)

Előrejelzés

A jelentés 24 perccel ezelõtt készült, 11:20 UTC
Az előrejelzés 18-én 12 óra UTC és 19-én 12 óra UTC között érvényes
Különbözõ irányokból fújó szél 5 kt
Látótávolság: 10 km
Szórványos felhőzet 1600 lábon
Szakadozott felhőzet 12000 lábon
Záporok a közelben

TAF: PTRO 181120Z 1812/1912 VRB05KT P6SM VCSH SCT016 BKN120

Meteorológiai megfigyelések és előrejelzések több, mint 4000 repülőtéren (METAR és TAF jelentéseket).

A térképen piros és sárga pontok jelzik az elérhető meteorológiai állomásokat.

Mozgassa az egeret a pont fölött, hogy megjelenjen az állomás neve.

Azután kattintson az időjárási megfigyelések és előrejelzések megtekintéséhez.

A térkép megváltoztatása: kattintson a fekete keresztel jelölt zöld gombra ráközelítéshez, a vonallal jelölt zöld gombra távolításhoz, vagy a zöld nyilakra a szomszédos térképek eléréséhez.


METAR-TAF: